Startpagina
METAR-TAF:

METAR-TAF

Vliegvelden :

Geilenkirchen, Duitsland

breedte: 50-57-39N, lengte: 006-2-33E, hoogte: 90 m

Actueel weer

Dit bericht is 1 uur en het 9 minuten geleden gemaakt, om 17:50 UTC
Wind 6 kt uit het oostnoordoosten
Temperatuur 18°C
Vochtigheid 73%
Druk 1011 hPa
Zicht 10 km of meer
Weinig wolken op 1500 ft
Gebroken wolken op 2000 ft

METAR: ETNG 211750Z 06006KT 9999 FEW015 BKN020 18/13 Q1011 NOSIG

Tijdstip: 20:59 (18:59 UTC)

Verwachting

Dit bericht is 1 uur en het 59 minuten geleden gemaakt, om 17:00 UTC
Verwachting geldig van 21 om 18 UTC tot 22 om 09 UTC
Wind 6 kt uit het noordnoordoosten
Zicht 10 km of meer
Gebroken wolken op 1800 ft
Kans 30% :
Tijdelijke
van 22 om 05 UTC tot 22 om 09 UTC
Zicht: 5000 m
Gebroken wolken op 1000 ft
lichte regen, motregen

TAF: ETNG 211700Z 2118/2209 03006KT 9999 BKN018 PROB30 TEMPO 2205/2209 5000 -RADZ BKN010

Waarnemingen en weersverwachtingen van meer dan 4000 vliegvelden (METAR en TAF).

De beschikbare stations zijn de gele en rode punten op de kaart.

Ga met uw muis naar het station om de naam te zien.

Klik dan om waarnemingen en weersverwachtingen te zien.

kaart wijzigen: klik op de groene knoppen met een zwart kruis om in te zoomen, op de groene knop met een streepje om uit te zoomen of op de groene pijlen voor aangrenzende kaarten.


METAR-TAF: